sensor_id;sensor_type;location;lat;lon;timestamp;P1;durP1;ratioP1;P2;durP2;ratioP2
70406;SDS011;57821;52.202;0.154;2023-03-02T00:04:12;4.82;;;1.52;;
70406;SDS011;57821;52.202;0.154;2023-03-02T00:06:42;8.50;;;3.30;;
70406;SDS011;57821;52.202;0.154;2023-03-02T00:09:09;6.82;;;3.03;;
70406;SDS011;57821;52.202;0.154;2023-03-02T00:11:36;9.70;;;4.32;;
70406;SDS011;57821;52.202;0.154;2023-03-02T00:14:03;9.60;;;4.90;;
70406;SDS011;57821;52.202;0.154;2023-03-02T00:16:30;14.25;;;7.47;;
70406;SDS011;57821;52.202;0.154;2023-03-02T00:18:57;14.50;;;9.00;;
70406;SDS011;57821;52.202;0.154;2023-03-02T00:21:24;22.08;;;12.18;;
70406;SDS011;57821;52.202;0.154;2023-03-02T00:23:51;14.52;;;9.68;;
70406;SDS011;57821;52.202;0.154;2023-03-02T00:26:18;11.48;;;6.88;;
70406;SDS011;57821;52.202;0.154;2023-03-02T00:28:46;7.30;;;4.05;;
70406;SDS011;57821;52.202;0.154;2023-03-02T00:31:12;8.23;;;4.03;;
70406;SDS011;57821;52.202;0.154;2023-03-02T00:33:39;12.25;;;4.28;;
70406;SDS011;57821;52.202;0.154;2023-03-02T00:36:13;9.35;;;3.30;;
70406;SDS011;57821;52.202;0.154;2023-03-02T00:38:43;8.80;;;3.47;;
70406;SDS011;57821;52.202;0.154;2023-03-02T00:41:10;6.32;;;2.90;;
70406;SDS011;57821;52.202;0.154;2023-03-02T00:43:38;7.30;;;2.47;;
70406;SDS011;57821;52.202;0.154;2023-03-02T00:46:23;6.30;;;2.15;;
70406;SDS011;57821;52.202;0.154;2023-03-02T00:48:50;10.07;;;3.00;;
70406;SDS011;57821;52.202;0.154;2023-03-02T00:51:17;6.63;;;2.30;;
70406;SDS011;57821;52.202;0.154;2023-03-02T00:53:44;5.07;;;2.17;;
70406;SDS011;57821;52.202;0.154;2023-03-02T00:56:11;6.43;;;2.40;;
70406;SDS011;57821;52.202;0.154;2023-03-02T00:58:44;8.32;;;2.45;;
70406;SDS011;57821;52.202;0.154;2023-03-02T01:01:11;6.72;;;2.38;;
70406;SDS011;57821;52.202;0.154;2023-03-02T01:06:18;5.20;;;2.50;;
70406;SDS011;57821;52.202;0.154;2023-03-02T01:08:46;7.90;;;2.40;;
70406;SDS011;57821;52.202;0.154;2023-03-02T01:11:14;6.28;;;2.20;;
70406;SDS011;57821;52.202;0.154;2023-03-02T01:13:42;6.65;;;2.65;;
70406;SDS011;57821;52.202;0.154;2023-03-02T01:16:09;9.45;;;2.83;;
70406;SDS011;57821;52.202;0.154;2023-03-02T01:18:36;5.97;;;2.53;;
70406;SDS011;57821;52.202;0.154;2023-03-02T01:21:04;6.03;;;1.83;;
70406;SDS011;57821;52.202;0.154;2023-03-02T01:23:33;5.15;;;2.30;;
70406;SDS011;57821;52.202;0.154;2023-03-02T01:26:00;5.28;;;2.30;;
70406;SDS011;57821;52.202;0.154;2023-03-02T01:28:26;5.32;;;2.38;;
70406;SDS011;57821;52.202;0.154;2023-03-02T01:30:53;5.25;;;2.65;;
70406;SDS011;57821;52.202;0.154;2023-03-02T01:33:20;8.02;;;2.60;;
70406;SDS011;57821;52.202;0.154;2023-03-02T01:35:47;8.13;;;2.60;;
70406;SDS011;57821;52.202;0.154;2023-03-02T01:38:14;5.97;;;2.50;;
70406;SDS011;57821;52.202;0.154;2023-03-02T01:40:41;6.93;;;2.88;;
70406;SDS011;57821;52.202;0.154;2023-03-02T01:43:12;7.63;;;2.60;;
70406;SDS011;57821;52.202;0.154;2023-03-02T01:45:48;7.43;;;3.00;;
70406;SDS011;57821;52.202;0.154;2023-03-02T01:48:48;8.82;;;2.72;;
70406;SDS011;57821;52.202;0.154;2023-03-02T01:51:31;10.68;;;2.95;;
70406;SDS011;57821;52.202;0.154;2023-03-02T01:54:03;8.60;;;2.58;;
70406;SDS011;57821;52.202;0.154;2023-03-02T01:56:34;6.47;;;2.88;;
70406;SDS011;57821;52.202;0.154;2023-03-02T01:59:08;7.03;;;2.53;;
70406;SDS011;57821;52.202;0.154;2023-03-02T02:01:40;6.85;;;3.10;;
70406;SDS011;57821;52.202;0.154;2023-03-02T02:04:12;7.03;;;2.85;;
70406;SDS011;57821;52.202;0.154;2023-03-02T02:06:41;11.32;;;3.30;;
70406;SDS011;57821;52.202;0.154;2023-03-02T02:09:09;7.22;;;2.20;;
70406;SDS011;57821;52.202;0.154;2023-03-02T02:11:43;6.85;;;2.83;;
70406;SDS011;57821;52.202;0.154;2023-03-02T02:14:11;9.25;;;2.80;;
70406;SDS011;57821;52.202;0.154;2023-03-02T02:16:37;7.75;;;2.92;;
70406;SDS011;57821;52.202;0.154;2023-03-02T02:19:09;8.85;;;2.92;;
70406;SDS011;57821;52.202;0.154;2023-03-02T02:21:43;8.30;;;2.92;;
70406;SDS011;57821;52.202;0.154;2023-03-02T02:24:11;6.35;;;2.75;;
70406;SDS011;57821;52.202;0.154;2023-03-02T02:26:47;7.20;;;2.60;;
70406;SDS011;57821;52.202;0.154;2023-03-02T02:29:24;9.95;;;3.17;;
70406;SDS011;57821;52.202;0.154;2023-03-02T02:31:56;12.60;;;3.20;;
70406;SDS011;57821;52.202;0.154;2023-03-02T02:37:20;10.05;;;2.90;;
70406;SDS011;57821;52.202;0.154;2023-03-02T02:39:51;9.57;;;2.95;;
70406;SDS011;57821;52.202;0.154;2023-03-02T02:42:29;9.93;;;3.17;;
70406;SDS011;57821;52.202;0.154;2023-03-02T02:45:01;10.85;;;3.22;;
70406;SDS011;57821;52.202;0.154;2023-03-02T02:47:31;7.25;;;2.90;;
70406;SDS011;57821;52.202;0.154;2023-03-02T02:49:57;7.50;;;2.88;;
70406;SDS011;57821;52.202;0.154;2023-03-02T02:52:25;8.35;;;3.25;;
70406;SDS011;57821;52.202;0.154;2023-03-02T02:54:54;7.60;;;3.15;;
70406;SDS011;57821;52.202;0.154;2023-03-02T02:57:24;8.50;;;3.28;;
70406;SDS011;57821;52.202;0.154;2023-03-02T02:59:55;9.60;;;3.23;;
70406;SDS011;57821;52.202;0.154;2023-03-02T03:02:26;8.18;;;3.22;;
70406;SDS011;57821;52.202;0.154;2023-03-02T03:04:55;6.97;;;2.90;;
70406;SDS011;57821;52.202;0.154;2023-03-02T03:07:22;8.45;;;3.47;;
70406;SDS011;57821;52.202;0.154;2023-03-02T03:12:48;6.43;;;3.20;;
70406;SDS011;57821;52.202;0.154;2023-03-02T03:15:18;7.97;;;3.80;;
70406;SDS011;57821;52.202;0.154;2023-03-02T03:17:56;8.75;;;3.33;;
70406;SDS011;57821;52.202;0.154;2023-03-02T03:20:25;6.75;;;3.30;;
70406;SDS011;57821;52.202;0.154;2023-03-02T03:22:53;8.55;;;4.03;;
70406;SDS011;57821;52.202;0.154;2023-03-02T03:25:23;7.13;;;3.50;;
70406;SDS011;57821;52.202;0.154;2023-03-02T03:27:52;10.38;;;3.72;;
70406;SDS011;57821;52.202;0.154;2023-03-02T03:30:19;9.02;;;3.63;;
70406;SDS011;57821;52.202;0.154;2023-03-02T03:32:47;9.60;;;4.13;;
70406;SDS011;57821;52.202;0.154;2023-03-02T03:35:14;7.63;;;3.83;;
70406;SDS011;57821;52.202;0.154;2023-03-02T03:37:41;7.45;;;3.40;;
70406;SDS011;57821;52.202;0.154;2023-03-02T03:40:09;8.32;;;4.00;;
70406;SDS011;57821;52.202;0.154;2023-03-02T03:42:39;8.93;;;4.13;;
70406;SDS011;57821;52.202;0.154;2023-03-02T03:45:06;8.23;;;3.90;;
70406;SDS011;57821;52.202;0.154;2023-03-02T03:47:33;10.65;;;3.88;;
70406;SDS011;57821;52.202;0.154;2023-03-02T03:50:02;10.55;;;4.32;;
70406;SDS011;57821;52.202;0.154;2023-03-02T03:52:30;7.82;;;4.22;;
70406;SDS011;57821;52.202;0.154;2023-03-02T03:55:05;10.77;;;4.97;;
70406;SDS011;57821;52.202;0.154;2023-03-02T03:57:33;11.88;;;4.47;;
70406;SDS011;57821;52.202;0.154;2023-03-02T03:59:59;13.70;;;4.53;;
70406;SDS011;57821;52.202;0.154;2023-03-02T04:02:27;9.57;;;4.90;;
70406;SDS011;57821;52.202;0.154;2023-03-02T04:04:53;9.88;;;4.78;;
70406;SDS011;57821;52.202;0.154;2023-03-02T04:07:20;13.63;;;4.85;;
70406;SDS011;57821;52.202;0.154;2023-03-02T04:09:47;10.20;;;4.70;;
70406;SDS011;57821;52.202;0.154;2023-03-02T04:12:14;11.55;;;5.55;;
70406;SDS011;57821;52.202;0.154;2023-03-02T04:14:45;9.70;;;4.78;;
70406;SDS011;57821;52.202;0.154;2023-03-02T04:17:12;9.70;;;4.90;;
70406;SDS011;57821;52.202;0.154;2023-03-02T04:19:42;9.77;;;4.88;;
70406;SDS011;57821;52.202;0.154;2023-03-02T04:22:09;10.65;;;5.10;;
70406;SDS011;57821;52.202;0.154;2023-03-02T04:24:35;12.85;;;4.82;;
70406;SDS011;57821;52.202;0.154;2023-03-02T04:27:03;8.85;;;4.50;;
70406;SDS011;57821;52.202;0.154;2023-03-02T04:29:31;9.88;;;4.88;;
70406;SDS011;57821;52.202;0.154;2023-03-02T04:32:00;10.73;;;4.93;;
70406;SDS011;57821;52.202;0.154;2023-03-02T04:34:28;8.45;;;4.95;;
70406;SDS011;57821;52.202;0.154;2023-03-02T04:36:55;10.82;;;5.28;;
70406;SDS011;57821;52.202;0.154;2023-03-02T04:39:22;11.88;;;5.88;;
70406;SDS011;57821;52.202;0.154;2023-03-02T04:41:50;14.30;;;6.55;;
70406;SDS011;57821;52.202;0.154;2023-03-02T04:44:17;13.07;;;5.95;;
70406;SDS011;57821;52.202;0.154;2023-03-02T04:46:45;9.95;;;4.80;;
70406;SDS011;57821;52.202;0.154;2023-03-02T04:49:13;10.25;;;5.25;;
70406;SDS011;57821;52.202;0.154;2023-03-02T04:51:41;12.38;;;5.65;;
70406;SDS011;57821;52.202;0.154;2023-03-02T04:54:15;12.32;;;5.80;;
70406;SDS011;57821;52.202;0.154;2023-03-02T04:56:47;12.82;;;5.90;;
70406;SDS011;57821;52.202;0.154;2023-03-02T04:59:14;12.07;;;6.15;;
70406;SDS011;57821;52.202;0.154;2023-03-02T05:01:42;11.80;;;5.90;;
70406;SDS011;57821;52.202;0.154;2023-03-02T05:04:09;8.93;;;5.53;;
70406;SDS011;57821;52.202;0.154;2023-03-02T05:06:37;9.90;;;5.53;;
70406;SDS011;57821;52.202;0.154;2023-03-02T05:09:04;12.73;;;6.45;;
70406;SDS011;57821;52.202;0.154;2023-03-02T05:11:31;11.75;;;6.63;;
70406;SDS011;57821;52.202;0.154;2023-03-02T05:13:59;12.70;;;5.90;;
70406;SDS011;57821;52.202;0.154;2023-03-02T05:16:29;15.23;;;6.20;;
70406;SDS011;57821;52.202;0.154;2023-03-02T05:18:59;13.95;;;6.68;;
70406;SDS011;57821;52.202;0.154;2023-03-02T05:21:26;16.08;;;6.78;;
70406;SDS011;57821;52.202;0.154;2023-03-02T05:23:53;11.52;;;6.50;;
70406;SDS011;57821;52.202;0.154;2023-03-02T05:26:20;13.50;;;6.13;;
70406;SDS011;57821;52.202;0.154;2023-03-02T05:28:47;14.23;;;6.68;;
70406;SDS011;57821;52.202;0.154;2023-03-02T05:31:21;13.05;;;7.05;;
70406;SDS011;57821;52.202;0.154;2023-03-02T05:33:53;13.10;;;7.15;;
70406;SDS011;57821;52.202;0.154;2023-03-02T05:36:19;15.02;;;7.35;;
70406;SDS011;57821;52.202;0.154;2023-03-02T05:38:48;15.90;;;7.88;;
70406;SDS011;57821;52.202;0.154;2023-03-02T05:41:15;16.65;;;8.38;;
70406;SDS011;57821;52.202;0.154;2023-03-02T05:43:42;17.75;;;8.90;;
70406;SDS011;57821;52.202;0.154;2023-03-02T05:46:09;16.88;;;8.60;;
70406;SDS011;57821;52.202;0.154;2023-03-02T05:48:36;14.05;;;8.63;;
70406;SDS011;57821;52.202;0.154;2023-03-02T05:51:03;14.95;;;9.02;;
70406;SDS011;57821;52.202;0.154;2023-03-02T05:53:30;18.15;;;10.32;;
70406;SDS011;57821;52.202;0.154;2023-03-02T05:55:56;19.55;;;10.25;;
70406;SDS011;57821;52.202;0.154;2023-03-02T05:58:23;18.92;;;10.23;;
70406;SDS011;57821;52.202;0.154;2023-03-02T06:00:49;18.30;;;9.77;;
70406;SDS011;57821;52.202;0.154;2023-03-02T06:03:16;21.58;;;10.35;;
70406;SDS011;57821;52.202;0.154;2023-03-02T06:05:43;20.08;;;10.75;;
70406;SDS011;57821;52.202;0.154;2023-03-02T06:08:10;20.08;;;11.68;;
70406;SDS011;57821;52.202;0.154;2023-03-02T06:10:36;19.85;;;11.60;;
70406;SDS011;57821;52.202;0.154;2023-03-02T06:13:03;19.65;;;11.18;;
70406;SDS011;57821;52.202;0.154;2023-03-02T06:15:29;21.45;;;11.88;;
70406;SDS011;57821;52.202;0.154;2023-03-02T06:17:56;23.70;;;13.05;;
70406;SDS011;57821;52.202;0.154;2023-03-02T06:20:23;22.77;;;12.68;;
70406;SDS011;57821;52.202;0.154;2023-03-02T06:22:50;26.38;;;13.82;;
70406;SDS011;57821;52.202;0.154;2023-03-02T06:25:18;27.83;;;14.98;;
70406;SDS011;57821;52.202;0.154;2023-03-02T06:27:46;24.27;;;14.10;;
70406;SDS011;57821;52.202;0.154;2023-03-02T06:30:14;30.95;;;14.90;;
70406;SDS011;57821;52.202;0.154;2023-03-02T06:32:42;24.10;;;14.18;;
70406;SDS011;57821;52.202;0.154;2023-03-02T06:35:09;26.00;;;15.50;;
70406;SDS011;57821;52.202;0.154;2023-03-02T06:37:37;25.85;;;14.88;;
70406;SDS011;57821;52.202;0.154;2023-03-02T06:40:04;25.20;;;15.05;;
70406;SDS011;57821;52.202;0.154;2023-03-02T06:42:32;33.55;;;17.52;;
70406;SDS011;57821;52.202;0.154;2023-03-02T06:44:58;24.08;;;14.68;;
70406;SDS011;57821;52.202;0.154;2023-03-02T06:47:25;27.42;;;15.32;;
70406;SDS011;57821;52.202;0.154;2023-03-02T06:49:52;28.48;;;16.85;;
70406;SDS011;57821;52.202;0.154;2023-03-02T06:52:18;29.88;;;16.40;;
70406;SDS011;57821;52.202;0.154;2023-03-02T06:54:45;27.77;;;16.45;;
70406;SDS011;57821;52.202;0.154;2023-03-02T06:57:11;30.73;;;17.58;;
70406;SDS011;57821;52.202;0.154;2023-03-02T06:59:38;31.52;;;16.80;;
70406;SDS011;57821;52.202;0.154;2023-03-02T07:02:05;28.25;;;17.13;;
70406;SDS011;57821;52.202;0.154;2023-03-02T07:04:31;30.92;;;16.75;;
70406;SDS011;57821;52.202;0.154;2023-03-02T07:06:58;35.05;;;18.45;;
70406;SDS011;57821;52.202;0.154;2023-03-02T07:09:25;31.90;;;17.23;;
70406;SDS011;57821;52.202;0.154;2023-03-02T07:11:51;28.80;;;17.17;;
70406;SDS011;57821;52.202;0.154;2023-03-02T07:14:18;29.95;;;16.58;;
70406;SDS011;57821;52.202;0.154;2023-03-02T07:16:44;29.50;;;17.13;;
70406;SDS011;57821;52.202;0.154;2023-03-02T07:19:11;32.92;;;16.40;;
70406;SDS011;57821;52.202;0.154;2023-03-02T07:21:39;31.40;;;17.50;;
70406;SDS011;57821;52.202;0.154;2023-03-02T07:24:06;32.53;;;16.98;;
70406;SDS011;57821;52.202;0.154;2023-03-02T07:26:33;30.10;;;17.17;;
70406;SDS011;57821;52.202;0.154;2023-03-02T07:28:59;29.20;;;16.52;;
70406;SDS011;57821;52.202;0.154;2023-03-02T07:31:26;32.65;;;16.98;;
70406;SDS011;57821;52.202;0.154;2023-03-02T07:33:53;28.65;;;17.38;;
70406;SDS011;57821;52.202;0.154;2023-03-02T07:36:20;32.38;;;17.70;;
70406;SDS011;57821;52.202;0.154;2023-03-02T07:38:46;34.58;;;19.10;;
70406;SDS011;57821;52.202;0.154;2023-03-02T07:41:13;32.10;;;16.90;;
70406;SDS011;57821;52.202;0.154;2023-03-02T07:43:40;35.92;;;18.45;;
70406;SDS011;57821;52.202;0.154;2023-03-02T07:46:06;33.38;;;18.08;;
70406;SDS011;57821;52.202;0.154;2023-03-02T07:48:33;30.65;;;17.67;;
70406;SDS011;57821;52.202;0.154;2023-03-02T07:51:01;30.30;;;16.48;;
70406;SDS011;57821;52.202;0.154;2023-03-02T07:53:29;30.70;;;18.42;;
70406;SDS011;57821;52.202;0.154;2023-03-02T07:55:56;27.02;;;16.70;;
70406;SDS011;57821;52.202;0.154;2023-03-02T07:58:23;28.30;;;16.52;;
70406;SDS011;57821;52.202;0.154;2023-03-02T08:00:49;30.75;;;15.68;;
70406;SDS011;57821;52.202;0.154;2023-03-02T08:03:16;30.58;;;17.15;;
70406;SDS011;57821;52.202;0.154;2023-03-02T08:05:43;27.00;;;17.05;;
70406;SDS011;57821;52.202;0.154;2023-03-02T08:08:09;27.58;;;16.55;;
70406;SDS011;57821;52.202;0.154;2023-03-02T08:10:36;29.83;;;16.50;;
70406;SDS011;57821;52.202;0.154;2023-03-02T08:13:03;31.75;;;17.67;;
70406;SDS011;57821;52.202;0.154;2023-03-02T08:15:30;29.27;;;16.85;;
70406;SDS011;57821;52.202;0.154;2023-03-02T08:17:56;34.58;;;17.45;;
70406;SDS011;57821;52.202;0.154;2023-03-02T08:20:23;24.92;;;14.98;;
70406;SDS011;57821;52.202;0.154;2023-03-02T08:22:50;25.38;;;16.02;;
70406;SDS011;57821;52.202;0.154;2023-03-02T08:25:16;25.25;;;14.68;;
70406;SDS011;57821;52.202;0.154;2023-03-02T08:27:43;24.85;;;15.10;;
70406;SDS011;57821;52.202;0.154;2023-03-02T08:30:11;28.90;;;16.40;;
70406;SDS011;57821;52.202;0.154;2023-03-02T08:32:38;24.38;;;14.15;;
70406;SDS011;57821;52.202;0.154;2023-03-02T08:35:05;25.48;;;14.85;;
70406;SDS011;57821;52.202;0.154;2023-03-02T08:37:33;29.15;;;15.27;;
70406;SDS011;57821;52.202;0.154;2023-03-02T08:40:00;27.42;;;14.98;;
70406;SDS011;57821;52.202;0.154;2023-03-02T08:42:26;24.20;;;13.60;;
70406;SDS011;57821;52.202;0.154;2023-03-02T08:44:53;28.70;;;14.18;;
70406;SDS011;57821;52.202;0.154;2023-03-02T08:47:20;26.75;;;13.30;;
70406;SDS011;57821;52.202;0.154;2023-03-02T08:49:46;23.92;;;13.70;;
70406;SDS011;57821;52.202;0.154;2023-03-02T08:52:13;29.38;;;13.48;;
70406;SDS011;57821;52.202;0.154;2023-03-02T08:54:41;18.80;;;12.60;;
70406;SDS011;57821;52.202;0.154;2023-03-02T08:57:09;24.33;;;12.43;;
70406;SDS011;57821;52.202;0.154;2023-03-02T08:59:37;21.40;;;12.77;;
70406;SDS011;57821;52.202;0.154;2023-03-02T09:02:03;21.67;;;12.32;;
70406;SDS011;57821;52.202;0.154;2023-03-02T09:04:30;28.85;;;12.85;;
70406;SDS011;57821;52.202;0.154;2023-03-02T09:06:57;20.80;;;12.38;;
70406;SDS011;57821;52.202;0.154;2023-03-02T09:09:24;26.75;;;12.10;;
70406;SDS011;57821;52.202;0.154;2023-03-02T09:11:50;21.90;;;12.23;;
70406;SDS011;57821;52.202;0.154;2023-03-02T09:14:17;22.52;;;11.70;;
70406;SDS011;57821;52.202;0.154;2023-03-02T09:16:43;19.63;;;11.50;;
70406;SDS011;57821;52.202;0.154;2023-03-02T09:19:10;21.33;;;11.68;;
70406;SDS011;57821;52.202;0.154;2023-03-02T09:21:38;22.73;;;11.50;;
70406;SDS011;57821;52.202;0.154;2023-03-02T09:24:05;21.05;;;11.02;;
70406;SDS011;57821;52.202;0.154;2023-03-02T09:26:32;25.60;;;12.05;;
70406;SDS011;57821;52.202;0.154;2023-03-02T09:28:58;23.52;;;11.45;;
70406;SDS011;57821;52.202;0.154;2023-03-02T09:31:25;24.90;;;11.63;;
70406;SDS011;57821;52.202;0.154;2023-03-02T09:33:55;18.42;;;10.07;;
70406;SDS011;57821;52.202;0.154;2023-03-02T09:36:22;15.43;;;10.13;;
70406;SDS011;57821;52.202;0.154;2023-03-02T09:38:51;23.70;;;9.35;;
70406;SDS011;57821;52.202;0.154;2023-03-02T09:46:34;22.38;;;9.35;;
70406;SDS011;57821;52.202;0.154;2023-03-02T09:52:05;17.20;;;9.05;;
70406;SDS011;57821;52.202;0.154;2023-03-02T09:54:41;25.67;;;10.63;;
70406;SDS011;57821;52.202;0.154;2023-03-02T09:57:13;20.38;;;10.07;;
70406;SDS011;57821;52.202;0.154;2023-03-02T09:59:50;15.00;;;8.35;;
70406;SDS011;57821;52.202;0.154;2023-03-02T10:02:46;15.05;;;8.55;;
70406;SDS011;57821;52.202;0.154;2023-03-02T10:05:26;18.13;;;8.75;;
70406;SDS011;57821;52.202;0.154;2023-03-02T10:07:59;16.50;;;8.55;;
70406;SDS011;57821;52.202;0.154;2023-03-02T10:10:36;19.80;;;9.27;;
70406;SDS011;57821;52.202;0.154;2023-03-02T10:18:37;16.40;;;8.73;;
70406;SDS011;57821;52.202;0.154;2023-03-02T10:34:48;17.65;;;8.13;;
70406;SDS011;57821;52.202;0.154;2023-03-02T10:37:17;14.27;;;6.80;;
70406;SDS011;57821;52.202;0.154;2023-03-02T10:39:45;18.35;;;7.80;;
70406;SDS011;57821;52.202;0.154;2023-03-02T10:42:14;13.32;;;8.05;;
70406;SDS011;57821;52.202;0.154;2023-03-02T10:44:45;11.40;;;7.20;;
70406;SDS011;57821;52.202;0.154;2023-03-02T10:47:26;11.98;;;7.10;;
70406;SDS011;57821;52.202;0.154;2023-03-02T10:49:55;14.25;;;6.90;;
70406;SDS011;57821;52.202;0.154;2023-03-02T10:52:24;13.40;;;6.75;;
70406;SDS011;57821;52.202;0.154;2023-03-02T10:55:05;16.00;;;6.68;;
70406;SDS011;57821;52.202;0.154;2023-03-02T10:57:39;11.48;;;5.55;;
70406;SDS011;57821;52.202;0.154;2023-03-02T11:00:21;12.88;;;5.70;;
70406;SDS011;57821;52.202;0.154;2023-03-02T11:02:54;13.38;;;6.03;;
70406;SDS011;57821;52.202;0.154;2023-03-02T11:07:53;11.98;;;6.53;;
70406;SDS011;57821;52.202;0.154;2023-03-02T11:10:29;15.40;;;6.05;;
70406;SDS011;57821;52.202;0.154;2023-03-02T11:13:00;10.70;;;5.25;;
70406;SDS011;57821;52.202;0.154;2023-03-02T11:18:01;11.48;;;5.25;;
70406;SDS011;57821;52.202;0.154;2023-03-02T11:20:34;12.85;;;4.75;;
70406;SDS011;57821;52.202;0.154;2023-03-02T11:25:53;10.73;;;4.53;;
70406;SDS011;57821;52.202;0.154;2023-03-02T11:28:44;11.98;;;4.65;;
70406;SDS011;57821;52.202;0.154;2023-03-02T11:31:16;13.23;;;4.43;;
70406;SDS011;57821;52.202;0.154;2023-03-02T11:39:40;14.43;;;4.32;;
70406;SDS011;57821;52.202;0.154;2023-03-02T11:42:24;14.15;;;3.88;;
70406;SDS011;57821;52.202;0.154;2023-03-02T11:44:51;9.35;;;3.83;;
70406;SDS011;57821;52.202;0.154;2023-03-02T11:47:18;14.95;;;4.40;;
70406;SDS011;57821;52.202;0.154;2023-03-02T11:49:53;10.90;;;3.95;;
70406;SDS011;57821;52.202;0.154;2023-03-02T11:52:22;17.80;;;6.57;;
70406;SDS011;57821;52.202;0.154;2023-03-02T11:54:54;10.20;;;4.20;;
70406;SDS011;57821;52.202;0.154;2023-03-02T11:57:44;12.32;;;4.70;;
70406;SDS011;57821;52.202;0.154;2023-03-02T12:00:27;17.33;;;5.45;;
70406;SDS011;57821;52.202;0.154;2023-03-02T12:05:29;10.02;;;4.25;;
70406;SDS011;57821;52.202;0.154;2023-03-02T12:08:01;10.23;;;3.85;;
70406;SDS011;57821;52.202;0.154;2023-03-02T12:13:39;12.60;;;4.43;;
70406;SDS011;57821;52.202;0.154;2023-03-02T12:18:47;11.32;;;4.43;;
70406;SDS011;57821;52.202;0.154;2023-03-02T12:21:16;9.93;;;4.18;;
70406;SDS011;57821;52.202;0.154;2023-03-02T12:28:59;9.50;;;3.25;;
70406;SDS011;57821;52.202;0.154;2023-03-02T12:31:38;7.43;;;3.17;;
70406;SDS011;57821;52.202;0.154;2023-03-02T12:48:45;8.45;;;2.47;;
70406;SDS011;57821;52.202;0.154;2023-03-02T12:51:17;6.47;;;2.08;;
70406;SDS011;57821;52.202;0.154;2023-03-02T12:53:46;11.80;;;3.83;;
70406;SDS011;57821;52.202;0.154;2023-03-02T12:56:21;8.43;;;2.50;;
70406;SDS011;57821;52.202;0.154;2023-03-02T12:58:49;5.32;;;2.03;;
70406;SDS011;57821;52.202;0.154;2023-03-02T13:01:22;8.00;;;1.75;;
70406;SDS011;57821;52.202;0.154;2023-03-02T13:03:51;5.72;;;1.65;;
70406;SDS011;57821;52.202;0.154;2023-03-02T13:06:20;6.53;;;1.95;;
70406;SDS011;57821;52.202;0.154;2023-03-02T13:08:50;10.00;;;1.85;;
70406;SDS011;57821;52.202;0.154;2023-03-02T13:11:28;8.05;;;1.67;;
70406;SDS011;57821;52.202;0.154;2023-03-02T13:13:58;6.72;;;1.35;;
70406;SDS011;57821;52.202;0.154;2023-03-02T13:16:27;8.32;;;2.20;;
70406;SDS011;57821;52.202;0.154;2023-03-02T13:19:00;8.40;;;1.77;;
70406;SDS011;57821;52.202;0.154;2023-03-02T13:21:35;8.20;;;1.88;;
70406;SDS011;57821;52.202;0.154;2023-03-02T13:27:03;5.10;;;1.50;;
70406;SDS011;57821;52.202;0.154;2023-03-02T13:29:31;9.25;;;1.80;;
70406;SDS011;57821;52.202;0.154;2023-03-02T13:34:58;7.22;;;1.70;;
70406;SDS011;57821;52.202;0.154;2023-03-02T13:37:31;3.85;;;1.20;;
70406;SDS011;57821;52.202;0.154;2023-03-02T13:40:04;5.63;;;1.80;;
70406;SDS011;57821;52.202;0.154;2023-03-02T13:42:35;6.05;;;1.30;;
70406;SDS011;57821;52.202;0.154;2023-03-02T13:47:51;7.32;;;1.55;;
70406;SDS011;57821;52.202;0.154;2023-03-02T13:52:54;5.07;;;1.15;;
70406;SDS011;57821;52.202;0.154;2023-03-02T13:55:23;6.15;;;1.25;;
70406;SDS011;57821;52.202;0.154;2023-03-02T13:57:50;7.53;;;1.08;;
70406;SDS011;57821;52.202;0.154;2023-03-02T14:00:21;7.00;;;1.13;;
70406;SDS011;57821;52.202;0.154;2023-03-02T14:02:56;4.43;;;0.90;;
70406;SDS011;57821;52.202;0.154;2023-03-02T14:05:24;5.97;;;1.08;;
70406;SDS011;57821;52.202;0.154;2023-03-02T14:07:52;5.40;;;1.30;;
70406;SDS011;57821;52.202;0.154;2023-03-02T14:10:19;8.80;;;1.30;;
70406;SDS011;57821;52.202;0.154;2023-03-02T14:12:57;4.25;;;0.95;;
70406;SDS011;57821;52.202;0.154;2023-03-02T14:15:28;8.00;;;1.40;;
70406;SDS011;57821;52.202;0.154;2023-03-02T14:17:55;6.43;;;1.30;;
70406;SDS011;57821;52.202;0.154;2023-03-02T14:20:22;3.30;;;0.85;;
70406;SDS011;57821;52.202;0.154;2023-03-02T14:22:49;5.05;;;1.20;;
70406;SDS011;57821;52.202;0.154;2023-03-02T14:25:15;5.82;;;1.35;;
70406;SDS011;57821;52.202;0.154;2023-03-02T14:27:42;6.35;;;1.27;;
70406;SDS011;57821;52.202;0.154;2023-03-02T14:30:13;5.88;;;1.48;;
70406;SDS011;57821;52.202;0.154;2023-03-02T14:32:43;10.68;;;1.60;;
70406;SDS011;57821;52.202;0.154;2023-03-02T14:35:10;6.70;;;1.20;;
70406;SDS011;57821;52.202;0.154;2023-03-02T14:37:40;6.90;;;1.15;;
70406;SDS011;57821;52.202;0.154;2023-03-02T14:40:25;6.25;;;1.40;;
70406;SDS011;57821;52.202;0.154;2023-03-02T14:42:53;11.45;;;1.42;;
70406;SDS011;57821;52.202;0.154;2023-03-02T14:45:20;6.32;;;1.13;;
70406;SDS011;57821;52.202;0.154;2023-03-02T14:47:47;4.13;;;0.95;;
70406;SDS011;57821;52.202;0.154;2023-03-02T14:50:14;5.85;;;1.10;;
70406;SDS011;57821;52.202;0.154;2023-03-02T14:52:44;7.22;;;1.83;;
70406;SDS011;57821;52.202;0.154;2023-03-02T14:55:17;5.70;;;1.63;;
70406;SDS011;57821;52.202;0.154;2023-03-02T14:57:57;6.13;;;1.00;;
70406;SDS011;57821;52.202;0.154;2023-03-02T15:00:25;5.13;;;1.30;;
70406;SDS011;57821;52.202;0.154;2023-03-02T15:02:52;6.22;;;1.30;;
70406;SDS011;57821;52.202;0.154;2023-03-02T15:05:19;7.25;;;1.15;;
70406;SDS011;57821;52.202;0.154;2023-03-02T15:07:46;8.98;;;1.48;;
70406;SDS011;57821;52.202;0.154;2023-03-02T15:10:16;7.53;;;1.15;;
70406;SDS011;57821;52.202;0.154;2023-03-02T15:12:44;10.63;;;1.33;;
70406;SDS011;57821;52.202;0.154;2023-03-02T15:15:11;5.93;;;1.40;;
70406;SDS011;57821;52.202;0.154;2023-03-02T15:17:39;7.25;;;1.50;;
70406;SDS011;57821;52.202;0.154;2023-03-02T15:20:06;11.40;;;1.45;;
70406;SDS011;57821;52.202;0.154;2023-03-02T15:22:35;8.82;;;1.42;;
70406;SDS011;57821;52.202;0.154;2023-03-02T15:25:02;8.90;;;1.15;;
70406;SDS011;57821;52.202;0.154;2023-03-02T15:27:29;6.00;;;1.17;;
70406;SDS011;57821;52.202;0.154;2023-03-02T15:29:55;7.65;;;1.20;;
70406;SDS011;57821;52.202;0.154;2023-03-02T15:32:25;7.90;;;1.13;;
70406;SDS011;57821;52.202;0.154;2023-03-02T15:34:51;8.40;;;1.60;;
70406;SDS011;57821;52.202;0.154;2023-03-02T15:37:18;7.15;;;1.65;;
70406;SDS011;57821;52.202;0.154;2023-03-02T15:39:44;6.53;;;1.45;;
70406;SDS011;57821;52.202;0.154;2023-03-02T15:42:11;6.30;;;1.45;;
70406;SDS011;57821;52.202;0.154;2023-03-02T15:44:39;7.32;;;1.83;;
70406;SDS011;57821;52.202;0.154;2023-03-02T15:47:06;7.15;;;1.27;;
70406;SDS011;57821;52.202;0.154;2023-03-02T15:49:32;4.85;;;1.05;;
70406;SDS011;57821;52.202;0.154;2023-03-02T15:51:59;6.18;;;1.20;;
70406;SDS011;57821;52.202;0.154;2023-03-02T15:54:28;4.78;;;1.00;;
70406;SDS011;57821;52.202;0.154;2023-03-02T15:56:55;11.32;;;1.48;;
70406;SDS011;57821;52.202;0.154;2023-03-02T15:59:25;8.93;;;1.17;;
70406;SDS011;57821;52.202;0.154;2023-03-02T16:01:53;8.52;;;1.50;;
70406;SDS011;57821;52.202;0.154;2023-03-02T16:04:20;8.98;;;1.55;;
70406;SDS011;57821;52.202;0.154;2023-03-02T16:06:47;5.60;;;1.02;;
70406;SDS011;57821;52.202;0.154;2023-03-02T16:09:13;4.57;;;0.90;;
70406;SDS011;57821;52.202;0.154;2023-03-02T16:11:40;6.28;;;1.45;;
70406;SDS011;57821;52.202;0.154;2023-03-02T16:14:06;9.48;;;1.30;;
70406;SDS011;57821;52.202;0.154;2023-03-02T16:16:33;11.48;;;1.40;;
70406;SDS011;57821;52.202;0.154;2023-03-02T16:19:00;8.63;;;1.58;;
70406;SDS011;57821;52.202;0.154;2023-03-02T16:21:27;7.25;;;1.40;;